Time;durP1;ratioP1;P1;durP2;ratioP2;P2;SDS_P1;SDS_P2;PMS_P1;PMS_P2;Temp;Humidity;BMP_temperature;BMP_pressure;BME280_temperature;BME280_humidity;BME280_pressure;Samples;Min_cycle;Max_cycle;Signal;HPM_P1;HPM_P2
2022/11/08 00:01:33;;;;;;;4.63;2.00;;;;;;;13.15;89.27;101118.38;5010163;28;20676;-78
2022/11/08 00:04:04;;;;;;;4.37;1.80;;;;;;;13.18;89.92;101122.69;5017088;28;20231;-78
2022/11/08 00:14:45;;;;;;;7.60;2.53;;;;;;;13.22;89.23;101119.31;5012355;28;20207;-78
2022/11/08 00:17:11;;;;;;;4.40;1.83;;;;;;;13.23;89.33;101121.03;5016315;28;20191;-78
2022/11/08 00:19:37;;;;;;;6.07;1.93;;;;;;;13.29;89.63;101124.56;4999809;28;20290;-78
2022/11/08 00:22:02;;;;;;;5.20;2.03;;;;;;;13.28;89.19;101117.69;5017817;28;20219;-77
2022/11/08 00:24:27;;;;;;;5.50;1.80;;;;;;;13.30;89.39;101121.13;5014179;28;20218;-78
2022/11/08 00:26:53;;;;;;;5.57;1.80;;;;;;;13.34;88.70;101128.06;4999945;28;20254;-78
2022/11/08 00:29:18;;;;;;;5.10;1.90;;;;;;;13.36;88.53;101113.53;5016198;28;20221;-78
2022/11/08 00:31:44;;;;;;;6.57;2.10;;;;;;;13.36;88.47;101116.09;5015645;28;20191;-79
2022/11/08 00:34:09;;;;;;;5.27;2.00;;;;;;;13.38;88.59;101124.69;4999601;28;20236;-77
2022/11/08 00:36:35;;;;;;;4.10;2.13;;;;;;;13.39;88.28;101125.56;5016286;28;20608;-78
2022/11/08 00:39:00;;;;;;;3.80;1.90;;;;;;;13.36;88.91;101120.34;5017520;28;20245;-78
2022/11/08 00:41:25;;;;;;;4.17;1.90;;;;;;;13.34;89.13;101128.06;5016724;28;20187;-78
2022/11/08 00:43:51;;;;;;;6.73;1.83;;;;;;;13.30;88.93;101123.72;5016150;28;20238;-79
2022/11/08 00:46:16;;;;;;;6.27;2.37;;;;;;;13.29;88.82;101126.25;5016709;28;20199;-78
2022/11/08 00:48:42;;;;;;;6.33;1.90;;;;;;;13.24;88.73;101118.50;5017656;28;20268;-77
2022/11/08 00:51:10;;;;;;;4.50;1.70;;;;;;;13.21;89.06;101122.75;4998912;28;20199;-78
2022/11/08 00:53:37;;;;;;;4.80;2.10;;;;;;;13.18;89.37;101118.44;5016302;28;20262;-77
2022/11/08 00:56:05;;;;;;;5.67;1.87;;;;;;;13.18;90.16;101125.25;5016291;28;20187;-78
2022/11/08 00:58:31;;;;;;;5.87;2.20;;;;;;;13.15;89.71;101118.38;5016755;28;20187;-77
2022/11/08 01:00:57;;;;;;;4.07;1.87;;;;;;;13.12;89.71;101122.63;5015376;28;20776;-78
2022/11/08 01:03:23;;;;;;;7.23;2.40;;;;;;;13.09;89.83;101120.88;5017469;28;20227;-78
2022/11/08 01:05:51;;;;;;;5.17;1.80;;;;;;;13.09;89.42;101122.56;5017349;28;20241;-78
2022/11/08 01:08:18;;;;;;;5.33;2.07;;;;;;;13.05;89.96;101116.53;5015545;28;20196;-77
2022/11/08 01:10:46;;;;;;;5.60;2.30;;;;;;;12.99;89.56;101111.31;5016288;28;20621;-78
2022/11/08 01:13:12;;;;;;;4.23;2.10;;;;;;;12.94;89.68;101108.63;5014738;28;20225;-78
2022/11/08 01:15:40;;;;;;;5.27;2.27;;;;;;;12.93;89.90;101112.91;5007603;28;20206;-78
2022/11/08 01:18:07;;;;;;;6.87;2.10;;;;;;;12.90;90.13;101113.72;5015955;28;20194;-79
2022/11/08 01:20:36;;;;;;;5.63;1.83;;;;;;;12.88;90.16;101111.13;5016878;28;20202;-78
2022/11/08 01:23:02;;;;;;;4.40;1.80;;;;;;;12.84;90.35;101108.47;5017440;28;20230;-78
2022/11/08 01:25:27;;;;;;;4.53;2.07;;;;;;;12.82;90.00;101116.16;5017491;28;20191;-78
2022/11/08 01:27:52;;;;;;;6.53;2.00;;;;;;;12.76;90.69;101112.66;5015663;28;20278;-78
2022/11/08 01:30:18;;;;;;;6.33;2.37;;;;;;;12.73;90.68;101117.75;5016748;28;20221;-78
2022/11/08 01:32:43;;;;;;;6.23;1.90;;;;;;;12.69;90.71;101121.97;5015766;28;20195;-78
2022/11/08 01:35:09;;;;;;;6.23;2.13;;;;;;;12.66;91.08;101121.03;5015750;28;20218;-79
2022/11/08 01:37:34;;;;;;;6.97;1.97;;;;;;;12.61;91.03;101115.84;5015496;28;20195;-79
2022/11/08 01:39:59;;;;;;;6.30;2.00;;;;;;;12.60;90.86;101114.13;5014564;28;20308;-78
2022/11/08 01:42:32;;;;;;;3.93;1.90;;;;;;;12.59;91.61;101117.50;5013647;28;20210;-78
2022/11/08 01:45:05;;;;;;;4.40;2.10;;;;;;;12.54;91.08;101115.72;5014816;28;20187;-78
2022/11/08 01:47:31;;;;;;;5.33;1.97;;;;;;;12.50;91.80;101114.78;5013055;28;20201;-78
2022/11/08 01:50:01;;;;;;;5.33;2.00;;;;;;;12.47;91.63;101119.03;5013364;28;20195;-78
2022/11/08 01:52:32;;;;;;;3.43;1.60;;;;;;;12.44;92.00;101111.28;5012804;28;20442;-77
2022/11/08 01:55:01;;;;;;;6.17;2.03;;;;;;;12.39;91.67;101112.94;5003348;28;20196;-77
2022/11/08 01:57:49;;;;;;;6.83;2.50;;;;;;;12.36;91.88;101112.88;5013461;28;20314;-77
2022/11/08 02:00:16;;;;;;;7.40;2.00;;;;;;;12.36;92.14;101110.28;5000904;28;20218;-76
2022/11/08 02:02:44;;;;;;;5.40;2.17;;;;;;;12.32;92.26;101113.66;5016253;28;20215;-78
2022/11/08 02:05:26;;;;;;;4.30;1.90;;;;;;;12.31;92.60;101109.34;4998553;28;20190;-78
2022/11/08 02:08:05;;;;;;;6.63;2.30;;;;;;;12.29;92.60;101113.59;5009596;28;20194;-78
2022/11/08 02:10:34;;;;;;;5.87;2.03;;;;;;;12.27;92.70;101105.00;5013652;28;20631;-78
2022/11/08 02:13:01;;;;;;;6.43;2.30;;;;;;;12.27;92.08;101099.88;5014814;28;20214;-78
2022/11/08 02:15:26;;;;;;;5.57;2.23;;;;;;;12.25;92.53;101097.28;5015185;28;20233;-78
2022/11/08 02:17:53;;;;;;;7.70;2.27;;;;;;;12.21;92.65;101108.31;5013889;28;20344;-78
2022/11/08 02:20:19;;;;;;;5.57;2.50;;;;;;;12.18;93.07;101097.16;5014265;28;20198;-78
2022/11/08 02:22:52;;;;;;;7.27;2.37;;;;;;;12.19;93.29;101094.63;5014354;28;20215;-78
2022/11/08 02:25:18;;;;;;;3.90;1.97;;;;;;;12.18;93.08;101098.03;5014346;28;20274;-77
2022/11/08 02:27:43;;;;;;;4.80;2.00;;;;;;;12.16;93.33;101091.16;5014738;28;20272;-77
2022/11/08 02:30:09;;;;;;;6.97;2.33;;;;;;;12.16;93.47;101099.69;5013250;28;20195;-77
2022/11/08 02:32:39;;;;;;;6.53;2.10;;;;;;;12.14;93.49;101098.81;4997519;28;20191;-77
2022/11/08 02:35:11;;;;;;;5.70;2.37;;;;;;;12.11;93.60;101098.75;5014853;28;20198;-78
2022/11/08 02:37:36;;;;;;;6.47;2.77;;;;;;;12.12;93.64;101091.94;5013972;28;20649;-78
2022/11/08 02:40:03;;;;;;;5.70;2.23;;;;;;;12.11;94.03;101088.47;5014898;28;20183;-78
2022/11/08 02:42:29;;;;;;;7.07;2.67;;;;;;;12.10;93.61;101091.00;5015539;28;20223;-78
2022/11/08 02:44:54;;;;;;;5.13;2.03;;;;;;;12.10;94.09;101091.88;5015714;28;20244;-78
2022/11/08 02:47:19;;;;;;;5.03;2.13;;;;;;;12.09;94.55;101094.44;4997610;28;20227;-79
2022/11/08 02:49:45;;;;;;;3.43;1.70;;;;;;;12.04;94.13;101098.63;5012405;28;20203;-77
2022/11/08 02:52:11;;;;;;;9.67;2.30;;;;;;;11.99;94.38;101095.97;4996450;28;20195;-78
2022/11/08 02:54:37;;;;;;;7.23;2.87;;;;;;;11.97;94.74;101092.50;4998330;28;20235;-78
2022/11/08 02:57:03;;;;;;;5.57;1.90;;;;;;;11.93;94.83;101083.03;4996620;28;20627;-78
2022/11/08 02:59:28;;;;;;;7.50;2.40;;;;;;;11.93;95.11;101084.75;5011808;28;20190;-78
2022/11/08 03:01:54;;;;;;;4.17;2.20;;;;;;;11.90;94.95;101090.66;5013221;28;20200;-77
2022/11/08 03:04:19;;;;;;;5.73;2.80;;;;;;;11.86;95.34;101085.47;5012585;28;20221;-78
2022/11/08 03:06:44;;;;;;;9.43;2.30;;;;;;;11.80;95.41;101085.34;4995684;28;20199;-78
2022/11/08 03:09:10;;;;;;;5.33;1.90;;;;;;;11.77;95.83;101091.31;5017304;28;20240;-77
2022/11/08 03:11:35;;;;;;;4.40;2.10;;;;;;;11.77;95.96;101087.84;5020401;28;20661;-79
2022/11/08 03:14:01;;;;;;;4.83;2.13;;;;;;;11.72;95.77;101082.66;5005288;28;20195;-78
2022/11/08 03:16:26;;;;;;;6.30;2.40;;;;;;;11.74;95.79;101082.66;5020047;28;20257;-78
2022/11/08 03:18:52;;;;;;;6.03;2.00;;;;;;;11.73;96.13;101078.38;5020848;28;20281;-78
2022/11/08 03:21:17;;;;;;;9.93;2.70;;;;;;;11.74;96.22;101088.66;5018178;28;20238;-77
2022/11/08 03:23:43;;;;;;;8.33;2.83;;;;;;;11.69;95.36;101086.84;4999886;28;20227;-78
2022/11/08 03:26:08;;;;;;;5.60;2.43;;;;;;;11.67;96.36;101089.41;5005118;28;20199;-77
2022/11/08 03:28:34;;;;;;;9.87;2.80;;;;;;;11.67;96.12;101094.53;5017421;28;20222;-77
2022/11/08 03:30:59;;;;;;;6.27;2.67;;;;;;;11.65;96.15;101095.31;4999979;28;20211;-77
2022/11/08 03:33:25;;;;;;;8.10;2.33;;;;;;;11.62;96.21;101098.69;5017641;28;20207;-78
2022/11/08 03:35:51;;;;;;;6.03;2.60;;;;;;;11.60;96.03;101089.22;4998090;28;20195;-78
2022/11/08 03:38:16;;;;;;;6.47;2.67;;;;;;;11.56;96.39;101090.84;5014345;28;20584;-78
2022/11/08 03:40:42;;;;;;;4.63;2.30;;;;;;;11.55;96.60;101098.50;4997901;28;20215;-78
2022/11/08 03:43:08;;;;;;;2.90;2.10;;;;;;;11.52;96.57;101090.78;5017271;28;20225;-78
2022/11/08 03:45:33;;;;;;;6.10;2.00;;;;;;;11.50;96.61;101092.44;5017822;28;20286;-77
2022/11/08 03:47:59;;;;;;;7.77;2.73;;;;;;;11.44;96.44;101089.75;5017176;28;20195;-78
2022/11/08 03:50:24;;;;;;;7.67;2.70;;;;;;;11.43;96.90;101093.16;5018003;28;20656;-78
2022/11/08 03:52:52;;;;;;;5.30;2.30;;;;;;;11.40;97.14;101091.41;5016158;28;20212;-78
2022/11/08 03:55:19;;;;;;;7.10;2.73;;;;;;;11.35;97.16;101089.56;4999857;28;20194;-78
2022/11/08 03:57:46;;;;;;;7.43;2.53;;;;;;;11.32;97.41;101090.38;5014431;28;20202;-78
2022/11/08 04:00:15;;;;;;;5.13;2.50;;;;;;;11.31;97.27;101091.22;5015840;28;20253;-78
2022/11/08 04:02:42;;;;;;;6.10;2.57;;;;;;;11.27;97.30;101091.97;5017760;28;20294;-78
2022/11/08 04:05:09;;;;;;;5.30;2.50;;;;;;;11.23;97.26;101095.31;5005596;28;20263;-78
2022/11/08 04:07:35;;;;;;;6.27;2.57;;;;;;;11.23;97.44;101095.31;5017853;28;20667;-78
2022/11/08 04:10:02;;;;;;;7.87;2.43;;;;;;;11.21;97.27;101097.00;5016784;28;20199;-78
2022/11/08 04:15:14;;;;;;;8.43;2.47;;;;;;;11.16;97.75;101101.13;5015231;28;20680;-78
2022/11/08 04:23:15;;;;;;;8.73;2.67;;;;;;;11.05;97.56;101100.06;5014316;28;20227;-77
2022/11/08 04:25:42;;;;;;;9.47;2.63;;;;;;;11.02;97.58;101092.28;5013352;28;20198;-77
2022/11/08 04:28:07;;;;;;;6.83;2.47;;;;;;;10.99;97.79;101094.81;5014852;28;20199;-78
2022/11/08 04:30:33;;;;;;;6.07;2.60;;;;;;;10.99;98.00;101096.50;5015040;28;20208;-78
2022/11/08 04:33:00;;;;;;;8.27;2.67;;;;;;;11.01;97.86;101088.00;5016838;28;20580;-78
2022/11/08 04:35:27;;;;;;;5.67;2.47;;;;;;;10.99;98.37;101092.25;5015444;28;20210;-78
2022/11/08 04:37:59;;;;;;;9.23;2.87;;;;;;;10.96;97.97;101091.31;5012212;28;20813;-78
2022/11/08 04:40:25;;;;;;;6.10;2.60;;;;;;;10.95;98.32;101092.13;5015983;28;20566;-78
2022/11/08 04:42:51;;;;;;;5.20;2.70;;;;;;;10.92;98.36;101090.38;4998937;28;20226;-77
2022/11/08 04:45:16;;;;;;;5.03;2.60;;;;;;;10.89;98.70;101084.31;5010651;28;20193;-78
2022/11/08 04:47:45;;;;;;;9.03;2.63;;;;;;;10.87;98.43;101081.72;5016126;28;20201;-78
2022/11/08 04:50:10;;;;;;;6.63;2.50;;;;;;;10.86;98.58;101082.56;5006119;28;20211;-78
2022/11/08 04:52:36;;;;;;;6.17;2.47;;;;;;;10.83;98.32;101079.06;5016063;28;20191;-77
2022/11/08 04:55:01;;;;;;;8.60;2.83;;;;;;;10.81;98.58;101079.03;5016394;28;20190;-78
2022/11/08 04:57:27;;;;;;;8.70;2.67;;;;;;;10.81;98.41;101091.84;5016371;28;20579;-78
2022/11/08 04:59:53;;;;;;;9.40;3.20;;;;;;;10.82;98.63;101087.56;4998004;28;20191;-77
2022/11/08 05:02:18;;;;;;;8.40;2.60;;;;;;;10.85;98.92;101082.50;5015603;28;20256;-78
2022/11/08 05:04:43;;;;;;;5.97;2.77;;;;;;;10.85;98.62;101079.94;5015943;28;20203;-78
2022/11/08 05:07:09;;;;;;;9.77;3.03;;;;;;;10.81;98.70;101088.41;5015061;28;20648;-78
2022/11/08 05:09:34;;;;;;;5.47;2.40;;;;;;;10.82;98.38;101083.31;5015414;28;20187;-78
2022/11/08 05:12:00;;;;;;;7.87;2.70;;;;;;;10.80;98.59;101084.13;5018215;28;20743;-77
2022/11/08 05:14:25;;;;;;;7.33;3.00;;;;;;;10.74;98.50;101081.44;5012762;28;20564;-78
2022/11/08 05:16:51;;;;;;;3.70;2.67;;;;;;;10.76;98.98;101082.31;5016947;28;20191;-78
2022/11/08 05:23:22;;;;;;;6.53;2.90;;;;;;;10.72;98.37;101076.25;5024230;28;20191;-77
2022/11/08 05:24:46;;;;;;;6.17;2.67;;;;;;;10.72;98.66;101078.81;5012719;28;20276;-78
2022/11/08 05:27:11;;;;;;;6.93;2.97;;;;;;;10.73;98.78;101088.22;5014553;28;20191;-78
2022/11/08 05:29:36;;;;;;;9.30;3.10;;;;;;;10.70;98.92;101077.91;5013459;28;20198;-78
2022/11/08 05:32:02;;;;;;;7.03;2.47;;;;;;;10.75;98.84;101076.34;4996942;28;20560;-78
2022/11/08 05:34:28;;;;;;;5.97;2.83;;;;;;;10.72;99.11;101076.25;5014427;28;20289;-78
2022/11/08 05:36:54;;;;;;;7.93;2.60;;;;;;;10.70;98.60;101080.47;5016361;28;20186;-78
2022/11/08 05:39:19;;;;;;;7.70;2.50;;;;;;;10.70;98.75;101077.91;5015570;28;20187;-78
2022/11/08 05:41:44;;;;;;;8.37;3.07;;;;;;;10.72;98.75;101070.25;5014779;28;20641;-78
2022/11/08 05:44:10;;;;;;;6.73;2.77;;;;;;;10.69;98.59;101076.19;5014902;28;20302;-78
2022/11/08 05:46:35;;;;;;;6.87;2.80;;;;;;;10.69;98.56;101073.63;4998597;28;20664;-78
2022/11/08 05:49:01;;;;;;;6.50;2.70;;;;;;;10.65;98.35;101074.38;5016083;28;20214;-78
2022/11/08 05:51:26;;;;;;;6.03;2.47;;;;;;;10.65;98.71;101074.38;5016295;28;20190;-78
2022/11/08 05:53:52;;;;;;;8.53;3.30;;;;;;;10.61;98.70;101067.50;5015935;28;20211;-78
2022/11/08 05:56:17;;;;;;;6.90;2.80;;;;;;;10.60;98.83;101080.25;5016019;28;20191;-79
2022/11/08 05:58:43;;;;;;;5.53;2.93;;;;;;;10.60;98.99;101077.69;5015440;28;20198;-77
2022/11/08 06:01:12;;;;;;;6.13;2.83;;;;;;;10.56;98.75;101079.28;4999114;28;20194;-78
2022/11/08 06:03:37;;;;;;;8.77;2.63;;;;;;;10.54;99.16;101078.41;5015463;28;20219;-78
2022/11/08 06:06:06;;;;;;;8.10;3.33;;;;;;;10.55;98.99;101069.88;5016735;28;20710;-78
2022/11/08 06:08:31;;;;;;;10.53;3.07;;;;;;;10.57;99.08;101072.47;5016068;28;20206;-77
2022/11/08 06:11:03;;;;;;;11.17;3.27;;;;;;;10.58;98.61;101079.34;5017444;28;20183;-78
2022/11/08 06:13:29;;;;;;;8.47;3.43;;;;;;;10.57;98.60;101072.47;5015496;28;20250;-78
2022/11/08 06:15:58;;;;;;;9.07;3.67;;;;;;;10.57;98.79;101073.38;5015031;28;20199;-77
2022/11/08 06:18:24;;;;;;;10.60;3.27;;;;;;;10.60;99.09;101065.72;5014746;28;20201;-78
2022/11/08 06:20:49;;;;;;;8.33;3.33;;;;;;;10.67;98.73;101062.50;5015218;28;20195;-78
2022/11/08 06:23:15;;;;;;;6.77;3.10;;;;;;;10.66;98.82;101065.91;5015795;28;20223;-78
2022/11/08 06:25:40;;;;;;;7.43;2.87;;;;;;;10.72;98.67;101068.56;4997547;28;20200;-77
2022/11/08 06:28:06;;;;;;;9.90;3.17;;;;;;;10.76;98.62;101069.50;5005852;28;20310;-77
2022/11/08 06:30:31;;;;;;;8.03;3.03;;;;;;;10.77;98.47;101066.97;5014476;28;20293;-78
2022/11/08 06:32:59;;;;;;;7.33;3.10;;;;;;;10.80;98.34;101064.50;5015302;28;20293;-78
2022/11/08 06:35:24;;;;;;;5.87;3.13;;;;;;;10.84;98.32;101063.75;5014468;28;20198;-78
2022/11/08 06:37:50;;;;;;;9.53;3.00;;;;;;;10.86;98.42;101062.06;5015407;28;20187;-78
2022/11/08 06:40:15;;;;;;;8.43;3.37;;;;;;;10.90;97.97;101063.88;5017813;28;20211;-77
2022/11/08 06:42:41;;;;;;;6.23;3.00;;;;;;;10.96;98.20;101069.09;5016307;28;20573;-78
2022/11/08 06:45:06;;;;;;;7.43;3.00;;;;;;;10.98;98.37;101067.47;5001825;28;20251;-78
2022/11/08 06:47:32;;;;;;;10.83;3.50;;;;;;;11.00;97.87;101070.91;5018724;28;20215;-78
2022/11/08 06:49:57;;;;;;;5.60;2.83;;;;;;;11.02;97.83;101066.66;5014757;28;20191;-78
2022/11/08 06:52:23;;;;;;;7.23;2.60;;;;;;;11.05;97.88;101073.53;5016295;28;20190;-78
2022/11/08 06:54:48;;;;;;;9.40;3.07;;;;;;;11.03;97.32;101076.09;5017246;28;20260;-77
2022/11/08 06:57:13;;;;;;;10.03;2.70;;;;;;;11.06;97.67;101072.75;5017127;28;20190;-77
2022/11/08 06:59:39;;;;;;;6.30;2.77;;;;;;;11.10;97.45;101066.84;5017377;28;20199;-78
2022/11/08 07:02:05;;;;;;;7.73;3.03;;;;;;;11.10;96.84;101056.59;5000862;28;20182;-78
2022/11/08 07:04:30;;;;;;;9.20;3.33;;;;;;;11.08;96.58;101058.25;5018547;28;20206;-78
2022/11/08 07:06:55;;;;;;;6.60;2.70;;;;;;;11.12;96.34;101068.59;5000763;28;20192;-77
2022/11/08 07:09:21;;;;;;;7.23;3.00;;;;;;;11.12;96.20;101060.03;5000479;28;20222;-77
2022/11/08 07:11:46;;;;;;;5.73;3.00;;;;;;;11.12;96.14;101060.91;5018847;28;20225;-78
2022/11/08 07:14:12;;;;;;;5.90;2.53;;;;;;;11.15;96.13;101063.53;5017996;28;20692;-77
2022/11/08 07:16:37;;;;;;;11.43;2.90;;;;;;;11.10;96.22;101049.75;5016878;28;20187;-79
2022/11/08 07:19:03;;;;;;;5.47;3.03;;;;;;;11.11;96.12;101045.50;5018665;28;20237;-78
2022/11/08 07:21:28;;;;;;;5.70;3.00;;;;;;;11.13;96.12;101054.97;4998908;28;20191;-78
2022/11/08 07:23:53;;;;;;;5.63;2.97;;;;;;;11.15;95.73;101055.00;4994860;28;20219;-78
2022/11/08 07:26:19;;;;;;;7.20;2.77;;;;;;;11.14;95.55;101053.25;5014824;28;20229;-77
2022/11/08 07:28:44;;;;;;;5.70;2.87;;;;;;;11.19;95.13;101052.50;5016306;28;20206;-78
2022/11/08 07:31:10;;;;;;;5.87;2.77;;;;;;;11.16;95.43;101052.44;5016521;28;20203;-79
2022/11/08 07:33:36;;;;;;;9.07;3.30;;;;;;;11.19;95.65;101056.75;5017021;28;20219;-78
2022/11/08 07:36:02;;;;;;;8.97;2.70;;;;;;;11.23;95.05;101058.53;5016736;28;20223;-79
2022/11/08 07:38:27;;;;;;;5.20;2.57;;;;;;;11.29;94.94;101056.97;5006059;28;20195;-78
2022/11/08 07:40:57;;;;;;;6.77;2.93;;;;;;;11.33;94.59;101053.63;4997003;28;20253;-78
2022/11/08 07:43:24;;;;;;;5.77;2.73;;;;;;;11.40;94.43;101050.38;5016444;28;20738;-78
2022/11/08 07:45:58;;;;;;;4.53;2.30;;;;;;;11.44;93.82;101049.59;5000669;28;20187;-78
2022/11/08 07:48:24;;;;;;;11.47;3.20;;;;;;;11.54;93.67;101045.50;5003737;28;20250;-78
2022/11/08 07:50:50;;;;;;;9.70;2.83;;;;;;;11.57;93.13;101048.13;5012929;28;20741;-79
2022/11/08 07:53:16;;;;;;;6.57;2.50;;;;;;;11.58;92.92;101049.84;4998577;28;20699;-78
2022/11/08 07:55:41;;;;;;;5.47;3.00;;;;;;;11.64;93.05;101042.28;5014449;28;20191;-78
2022/11/08 07:58:09;;;;;;;5.57;2.57;;;;;;;11.70;92.64;101043.28;5015546;28;20691;-77
2022/11/08 08:00:36;;;;;;;7.03;2.70;;;;;;;11.82;92.60;101045.19;5015972;28;20206;-78
2022/11/08 08:03:03;;;;;;;10.60;3.37;;;;;;;11.92;91.65;101044.50;5016658;28;20297;-77
2022/11/08 08:05:33;;;;;;;7.83;2.50;;;;;;;12.02;91.38;101048.94;5015891;28;20195;-78
2022/11/08 08:07:59;;;;;;;6.53;2.80;;;;;;;12.12;90.99;101049.13;5018549;28;20199;-78
2022/11/08 08:10:26;;;;;;;4.90;2.27;;;;;;;12.28;90.67;101047.69;5018568;28;20199;-77
2022/11/08 08:12:52;;;;;;;5.07;2.33;;;;;;;12.33;89.34;101052.06;5011828;28;20257;-77
2022/11/08 08:15:18;;;;;;;6.87;3.13;;;;;;;12.49;88.50;101042.88;5016997;28;20656;-78
2022/11/08 08:17:43;;;;;;;6.13;2.40;;;;;;;12.64;87.94;101067.09;5017856;28;20193;-79
2022/11/08 08:20:09;;;;;;;4.43;2.40;;;;;;;12.82;87.25;101051.91;5018710;28;20191;-78
2022/11/08 08:22:35;;;;;;;4.37;2.40;;;;;;;12.88;86.98;101051.13;5017843;28;20697;-77
2022/11/08 08:25:00;;;;;;;4.73;2.27;;;;;;;12.88;86.95;101046.88;5017641;28;20275;-77
2022/11/08 08:27:25;;;;;;;7.27;2.70;;;;;;;13.11;85.58;101044.59;5017257;28;20822;-77
2022/11/08 08:29:51;;;;;;;8.00;2.43;;;;;;;13.25;84.53;101047.38;5017461;28;20660;-79
2022/11/08 08:32:16;;;;;;;6.07;2.50;;;;;;;13.25;83.46;101048.22;5016861;28;20683;-78
2022/11/08 08:34:42;;;;;;;7.67;2.33;;;;;;;13.50;83.35;101050.22;5015964;28;20222;-77
2022/11/08 08:37:07;;;;;;;6.63;2.47;;;;;;;13.59;82.09;101039.16;5015645;28;20274;-79
2022/11/08 08:39:33;;;;;;;4.80;2.10;;;;;;;14.95;77.60;101029.94;5017275;28;20302;-78
2022/11/08 08:41:58;;;;;;;3.97;1.90;;;;;;;16.39;69.83;101026.78;5016490;28;20872;-78
2022/11/08 08:44:23;;;;;;;4.20;2.17;;;;;;;18.17;63.27;101018.16;5017028;28;20211;-77
2022/11/08 08:46:49;;;;;;;7.63;2.10;;;;;;;18.76;60.51;101004.63;5016578;28;20637;-78
2022/11/08 08:49:14;;;;;;;6.17;2.20;;;;;;;17.51;64.28;101007.44;5000059;28;20190;-78
2022/11/08 08:51:40;;;;;;;5.37;2.00;;;;;;;18.23;61.36;101009.50;5017515;28;20218;-78
2022/11/08 08:54:05;;;;;;;3.27;1.70;;;;;;;17.56;62.22;101016.91;5016403;28;20238;-78
2022/11/08 08:56:31;;;;;;;4.73;2.30;;;;;;;16.56;66.20;101019.88;5014388;28;20742;-79
2022/11/08 08:58:56;;;;;;;6.60;2.03;;;;;;;16.11;68.41;101015.56;5015881;28;20648;-78
2022/11/08 09:01:21;;;;;;;5.77;2.17;;;;;;;15.43;70.98;101018.97;5014473;28;20616;-78
2022/11/08 09:03:47;;;;;;;4.63;2.10;;;;;;;15.12;73.34;101015.38;5016305;28;20219;-78
2022/11/08 09:06:12;;;;;;;7.30;2.30;;;;;;;15.86;71.57;101000.94;5015043;28;20176;-78
2022/11/08 09:08:38;;;;;;;4.90;1.70;;;;;;;16.61;68.40;100994.84;5017119;28;20203;-78
2022/11/08 09:11:03;;;;;;;3.43;2.03;;;;;;;16.44;68.16;100994.06;5008665;28;20187;-78
2022/11/08 09:13:29;;;;;;;5.40;2.23;;;;;;;16.92;67.25;100996.47;5015617;28;20214;-79
2022/11/08 09:15:56;;;;;;;3.40;1.60;;;;;;;19.04;59.87;100980.94;5015467;28;20238;-78
2022/11/08 09:18:22;;;;;;;4.90;2.30;;;;;;;19.98;55.77;100975.19;5017928;28;20191;-78
2022/11/08 09:20:47;;;;;;;5.53;1.80;;;;;;;19.70;56.56;100973.94;5016334;28;20194;-77
2022/11/08 09:23:15;;;;;;;6.93;1.87;;;;;;;18.76;59.47;100979.56;5015428;28;20583;-78
2022/11/08 09:25:41;;;;;;;6.67;2.33;;;;;;;18.80;59.05;100983.81;5012423;28;20222;-79
2022/11/08 09:28:08;;;;;;;3.50;1.73;;;;;;;17.70;61.97;100984.00;4991784;28;20258;-78
2022/11/08 09:30:33;;;;;;;4.13;1.63;;;;;;;19.06;57.99;100973.09;5010610;28;20199;-77
2022/11/08 09:32:59;;;;;;;2.73;1.93;;;;;;;19.43;57.63;100974.38;5014304;28;20215;-78
2022/11/08 09:35:26;;;;;;;6.07;2.17;;;;;;;19.23;56.87;100966.84;5014770;28;20674;-77
2022/11/08 09:37:52;;;;;;;3.40;1.60;;;;;;;19.70;56.83;100968.75;5013681;28;20221;-78
2022/11/08 09:40:25;;;;;;;2.83;1.70;;;;;;;19.41;56.05;100960.53;4998066;28;20191;-77
2022/11/08 09:43:18;;;;;;;4.33;1.80;;;;;;;18.72;57.92;100957.09;5013297;28;20594;-78
2022/11/08 09:45:45;;;;;;;3.87;1.77;;;;;;;18.54;59.60;100959.91;5012905;28;20221;-77
2022/11/08 09:48:28;;;;;;;4.43;1.83;;;;;;;17.78;61.07;100955.44;5012938;28;20190;-78
2022/11/08 09:50:56;;;;;;;4.90;2.03;;;;;;;17.35;63.36;100960.03;5011310;28;20604;-79
2022/11/08 09:53:42;;;;;;;3.90;1.67;;;;;;;16.89;64.95;100966.31;4998004;28;20306;-78
2022/11/08 09:56:33;;;;;;;5.27;1.83;;;;;;;18.04;62.45;100956.94;5006167;28;20296;-78
2022/11/08 09:59:41;;;;;;;5.37;2.23;;;;;;;19.04;57.96;100943.72;5013057;28;20270;-78
2022/11/08 10:02:27;;;;;;;4.17;2.00;;;;;;;19.92;56.00;100936.31;5004052;28;20187;-78
2022/11/08 10:04:59;;;;;;;6.47;1.97;;;;;;;20.00;54.16;100931.84;5013572;28;20258;-78
2022/11/08 10:07:36;;;;;;;4.30;1.83;;;;;;;19.91;54.38;100932.00;5012353;28;20198;-78
2022/11/08 10:10:25;;;;;;;4.70;2.00;;;;;;;18.69;57.78;100930.31;5013744;28;20288;-77
2022/11/08 10:13:06;;;;;;;3.03;1.90;;;;;;;17.87;61.16;100935.47;5013729;28;20194;-78
2022/11/08 10:15:45;;;;;;;3.97;2.00;;;;;;;17.69;62.24;100934.78;5010493;28;20198;-77
2022/11/08 10:18:19;;;;;;;4.23;2.03;;;;;;;18.32;60.72;100923.81;5007291;28;20194;-78
2022/11/08 10:20:56;;;;;;;4.80;2.00;;;;;;;18.44;60.32;100911.63;5016913;28;20196;-78
2022/11/08 10:23:40;;;;;;;5.50;1.90;;;;;;;18.55;60.24;100907.16;5016660;28;20296;-78
2022/11/08 10:26:32;;;;;;;3.20;2.03;;;;;;;18.38;60.53;100903.88;5016720;28;20182;-78
2022/11/08 10:29:06;;;;;;;4.07;1.97;;;;;;;18.05;61.68;100899.03;5014013;28;20186;-78
2022/11/08 10:31:34;;;;;;;7.13;1.93;;;;;;;18.40;61.04;100893.50;5015131;28;20191;-78
2022/11/08 10:34:02;;;;;;;4.97;2.17;;;;;;;18.90;59.43;100894.59;5015359;28;20959;-78
2022/11/08 10:36:32;;;;;;;4.13;2.03;;;;;;;19.28;57.87;100881.94;5014209;28;20187;-78
2022/11/08 10:39:07;;;;;;;3.53;1.77;;;;;;;19.02;58.30;100883.19;5013704;28;20206;-78
2022/11/08 10:41:35;;;;;;;4.90;1.90;;;;;;;18.26;59.54;100878.06;5016745;28;20254;-78
2022/11/08 10:44:06;;;;;;;5.10;1.80;;;;;;;18.78;59.19;100868.81;5016552;28;20225;-77
2022/11/08 10:46:43;;;;;;;5.97;1.90;;;;;;;19.11;58.83;100870.91;5015706;28;20195;-78
2022/11/08 10:49:12;;;;;;;7.57;2.10;;;;;;;19.57;57.59;100858.09;5016524;28;20287;-78
2022/11/08 10:51:38;;;;;;;5.00;1.90;;;;;;;19.62;58.17;100841.53;5016618;28;20191;-78
2022/11/08 10:54:03;;;;;;;3.57;2.10;;;;;;;19.65;57.42;100836.28;5016408;28;20209;-78
2022/11/08 10:56:29;;;;;;;3.80;1.70;;;;;;;19.65;57.42;100831.09;5015843;28;20187;-77
2022/11/08 10:58:54;;;;;;;4.17;1.67;;;;;;;20.56;54.79;100820.66;5014465;28;20231;-77
2022/11/08 11:01:22;;;;;;;4.67;1.87;;;;;;;20.52;54.46;100823.34;5018072;28;20289;-78
2022/11/08 11:03:50;;;;;;;3.20;1.60;;;;;;;20.39;55.02;100814.94;5015350;28;20218;-77
2022/11/08 11:06:21;;;;;;;4.63;1.90;;;;;;;20.21;55.96;100817.91;5010292;28;20195;-78
2022/11/08 11:08:53;;;;;;;5.60;1.90;;;;;;;20.29;55.39;100809.94;5016059;28;20227;-78
2022/11/08 11:11:35;;;;;;;5.80;1.80;;;;;;;20.58;54.79;100807.56;5017751;28;20278;-78
2022/11/08 11:14:16;;;;;;;4.93;1.70;;;;;;;20.82;54.59;100802.69;5018035;28;20302;-78
2022/11/08 11:16:56;;;;;;;5.50;1.80;;;;;;;21.13;53.56;100798.50;5016236;28;20214;-79
2022/11/08 11:19:24;;;;;;;4.37;1.83;;;;;;;19.87;56.17;100813.38;5016564;28;20190;-78
2022/11/08 11:22:08;;;;;;;5.93;2.20;;;;;;;18.60;59.90;100817.16;5000103;28;20191;-79
2022/11/08 11:24:35;;;;;;;5.20;2.07;;;;;;;19.54;58.28;100796.66;5009706;28;20215;-78
2022/11/08 11:27:01;;;;;;;3.27;1.50;;;;;;;19.96;56.24;100802.78;5016186;28;20204;-78
2022/11/08 11:29:30;;;;;;;5.83;1.90;;;;;;;19.16;58.17;100804.19;5015030;28;20302;-78
2022/11/08 11:31:57;;;;;;;4.10;1.50;;;;;;;19.06;58.60;100813.00;5015995;28;20198;-77
2022/11/08 11:34:31;;;;;;;4.30;1.50;;;;;;;19.01;58.73;100807.03;5015110;28;20237;-78
2022/11/08 11:37:00;;;;;;;4.27;1.67;;;;;;;19.37;57.77;100798.69;5006222;28;20198;-78
2022/11/08 11:40:09;;;;;;;3.83;1.60;;;;;;;20.54;54.36;100795.53;5016331;28;20203;-78
2022/11/08 11:42:46;;;;;;;3.50;1.60;;;;;;;20.97;52.54;100797.19;5015855;28;20214;-78
2022/11/08 11:45:14;;;;;;;5.00;1.50;;;;;;;19.64;55.83;100803.41;5013497;28;20191;-77
2022/11/08 11:47:55;;;;;;;4.17;1.53;;;;;;;19.79;55.77;100803.13;5009400;28;20203;-78